createdAt,value
2024-03-03T00:00:28.414Z,21.71
2024-03-03T00:02:59.071Z,21.64
2024-03-03T00:05:29.898Z,21.57
2024-03-03T00:08:00.666Z,21.51
2024-03-03T00:10:31.372Z,21.46
2024-03-03T00:13:02.466Z,21.39
2024-03-03T00:15:33.676Z,21.34
2024-03-03T00:18:06.316Z,21.28
2024-03-03T00:20:37.407Z,21.23
2024-03-03T00:23:08.255Z,21.17
2024-03-03T00:25:40.140Z,21.13
2024-03-03T00:28:11.502Z,21.08
2024-03-03T00:30:42.509Z,21.02
2024-03-03T00:33:14.968Z,20.97
2024-03-03T00:35:45.654Z,20.92
2024-03-03T00:38:16.441Z,20.88
2024-03-03T00:40:47.703Z,20.84
2024-03-03T00:43:18.573Z,20.80
2024-03-03T00:45:49.485Z,20.76
2024-03-03T00:48:20.384Z,20.72
2024-03-03T00:50:51.196Z,20.68
2024-03-03T00:53:23.605Z,20.63
2024-03-03T00:55:54.285Z,20.59
2024-03-03T00:58:25.109Z,20.54
2024-03-03T01:00:56.414Z,20.49
2024-03-03T01:03:27.872Z,20.45
2024-03-03T01:05:58.682Z,20.40
2024-03-03T01:08:29.400Z,20.35
2024-03-03T01:11:00.335Z,20.30
2024-03-03T01:13:31.164Z,20.25
2024-03-03T01:16:02.213Z,20.22
2024-03-03T01:18:33.423Z,20.18
2024-03-03T01:21:05.071Z,20.16
2024-03-03T01:23:36.204Z,20.14
2024-03-03T01:26:07.372Z,20.10
2024-03-03T01:28:38.179Z,20.08
2024-03-03T01:31:09.267Z,20.05
2024-03-03T01:33:40.258Z,20.01
2024-03-03T01:36:12.428Z,19.97
2024-03-03T01:38:43.298Z,19.94
2024-03-03T01:41:14.333Z,19.92
2024-03-03T01:43:45.457Z,19.90
2024-03-03T01:46:17.717Z,19.88
2024-03-03T01:48:50.252Z,19.85
2024-03-03T01:51:21.803Z,19.83
2024-03-03T01:53:54.544Z,19.80
2024-03-03T01:56:28.983Z,19.77
2024-03-03T01:59:00.665Z,19.74
2024-03-03T02:01:33.303Z,19.72
2024-03-03T02:04:04.587Z,19.68
2024-03-03T02:06:37.363Z,19.64
2024-03-03T02:09:09.312Z,19.63
2024-03-03T02:11:40.683Z,19.62
2024-03-03T02:14:11.810Z,19.60
2024-03-03T02:16:43.453Z,19.58
2024-03-03T02:19:14.222Z,19.56
2024-03-03T02:21:46.389Z,19.53
2024-03-03T02:24:17.111Z,19.50
2024-03-03T02:26:48.468Z,19.48
2024-03-03T02:29:20.100Z,19.46
2024-03-03T02:31:51.501Z,19.43
2024-03-03T02:34:23.114Z,19.40
2024-03-03T02:36:54.155Z,19.38
2024-03-03T02:39:24.922Z,19.37
2024-03-03T02:41:55.938Z,19.36
2024-03-03T02:44:27.086Z,19.34
2024-03-03T02:46:57.709Z,19.31
2024-03-03T02:49:28.344Z,19.30
2024-03-03T02:51:59.244Z,19.29
2024-03-03T02:54:30.579Z,19.28
2024-03-03T02:57:01.317Z,19.27
2024-03-03T02:59:31.965Z,19.26
2024-03-03T03:02:02.749Z,19.24
2024-03-03T03:04:33.527Z,19.22
2024-03-03T03:07:04.306Z,19.20
2024-03-03T03:09:35.027Z,19.17
2024-03-03T03:12:06.510Z,19.16
2024-03-03T03:14:37.217Z,19.14
2024-03-03T03:17:08.782Z,19.12
2024-03-03T03:19:39.464Z,19.10
2024-03-03T03:22:10.580Z,19.07
2024-03-03T03:24:41.391Z,19.06
2024-03-03T03:27:12.223Z,19.04
2024-03-03T03:29:42.952Z,19.02
2024-03-03T03:32:13.887Z,19.01
2024-03-03T03:34:47.915Z,19.00
2024-03-03T03:37:19.126Z,18.98
2024-03-03T03:39:50.287Z,18.97
2024-03-03T03:42:21.458Z,18.95
2024-03-03T03:44:52.394Z,18.94
2024-03-03T03:47:24.253Z,18.92
2024-03-03T03:49:54.904Z,18.91
2024-03-03T03:52:25.884Z,18.89
2024-03-03T03:54:56.757Z,18.86
2024-03-03T03:57:27.587Z,18.85
2024-03-03T03:59:58.218Z,18.85
2024-03-03T04:02:30.607Z,18.83
2024-03-03T04:05:02.447Z,18.81
2024-03-03T04:07:33.621Z,18.79
2024-03-03T04:10:04.491Z,18.76
2024-03-03T04:12:35.426Z,18.74
2024-03-03T04:15:08.666Z,18.73
2024-03-03T04:17:39.375Z,18.72
2024-03-03T04:20:12.244Z,18.70
2024-03-03T04:22:42.977Z,18.68
2024-03-03T04:25:14.358Z,18.67
2024-03-03T04:27:45.310Z,18.66
2024-03-03T04:30:16.450Z,18.65
2024-03-03T04:32:47.864Z,18.63
2024-03-03T04:35:19.017Z,18.62
2024-03-03T04:37:49.686Z,18.61
2024-03-03T04:40:20.735Z,18.60
2024-03-03T04:42:52.017Z,18.60
2024-03-03T04:45:22.907Z,18.58
2024-03-03T04:47:53.852Z,18.57
2024-03-03T04:50:24.631Z,18.55
2024-03-03T04:52:55.309Z,18.54
2024-03-03T04:55:26.001Z,18.53
2024-03-03T04:57:57.499Z,18.52
2024-03-03T05:00:28.157Z,18.50
2024-03-03T05:02:59.151Z,18.50
2024-03-03T05:05:29.760Z,18.50
2024-03-03T05:08:00.595Z,18.48
2024-03-03T05:10:31.330Z,18.47
2024-03-03T05:13:03.453Z,18.46
2024-03-03T05:15:37.582Z,18.46
2024-03-03T05:18:08.886Z,18.46
2024-03-03T05:20:39.609Z,18.44
2024-03-03T05:23:10.323Z,18.43
2024-03-03T05:25:41.793Z,18.42
2024-03-03T05:28:12.597Z,18.40
2024-03-03T05:30:43.838Z,18.40
2024-03-03T05:33:14.822Z,18.39
2024-03-03T05:35:46.284Z,18.38
2024-03-03T05:38:17.420Z,18.37
2024-03-03T05:40:48.362Z,18.35
2024-03-03T05:43:19.460Z,18.35
2024-03-03T05:45:50.648Z,18.34
2024-03-03T05:48:21.591Z,18.32
2024-03-03T05:50:52.329Z,18.32
2024-03-03T05:53:23.091Z,18.30
2024-03-03T05:55:53.814Z,18.31
2024-03-03T05:58:24.829Z,18.31
2024-03-03T06:00:55.700Z,18.30
2024-03-03T06:03:26.549Z,18.29
2024-03-03T06:05:57.462Z,18.28
2024-03-03T06:08:28.449Z,18.27
2024-03-03T06:10:59.249Z,18.27
2024-03-03T06:13:30.012Z,18.27
2024-03-03T06:16:00.754Z,18.27
2024-03-03T06:18:31.762Z,18.26
2024-03-03T06:21:02.518Z,18.26
2024-03-03T06:23:33.226Z,18.25
2024-03-03T06:26:04.077Z,18.24
2024-03-03T06:28:34.790Z,18.23
2024-03-03T06:31:05.984Z,18.24
2024-03-03T06:33:36.852Z,18.23
2024-03-03T06:36:09.160Z,18.23
2024-03-03T06:38:40.015Z,18.24
2024-03-03T06:41:10.721Z,18.26
2024-03-03T06:43:42.723Z,18.30
2024-03-03T06:46:13.982Z,18.34
2024-03-03T06:48:45.023Z,18.39
2024-03-03T06:51:15.937Z,18.44
2024-03-03T06:53:46.842Z,18.49
2024-03-03T06:56:18.925Z,18.53
2024-03-03T06:58:50.953Z,18.58
2024-03-03T07:01:22.124Z,18.62
2024-03-03T07:04:09.507Z,18.67
2024-03-03T07:06:41.843Z,18.71
2024-03-03T07:09:12.722Z,18.75
2024-03-03T07:11:43.511Z,18.80
2024-03-03T07:14:14.307Z,18.83
2024-03-03T07:16:44.972Z,18.87
2024-03-03T07:19:15.921Z,18.90
2024-03-03T07:21:46.897Z,18.92
2024-03-03T07:24:18.341Z,18.94
2024-03-03T07:26:49.020Z,18.97
2024-03-03T07:29:20.011Z,19.00
2024-03-03T07:31:50.677Z,19.02
2024-03-03T07:34:22.145Z,19.05
2024-03-03T07:36:53.568Z,19.08
2024-03-03T07:39:24.419Z,19.10
2024-03-03T07:41:55.177Z,19.13
2024-03-03T07:44:25.952Z,19.14
2024-03-03T07:46:56.747Z,19.16
2024-03-03T07:49:27.510Z,19.18
2024-03-03T07:51:58.449Z,19.19
2024-03-03T07:54:29.148Z,19.21
2024-03-03T07:56:59.786Z,19.24
2024-03-03T07:59:31.082Z,19.26
2024-03-03T08:02:02.393Z,19.28
2024-03-03T08:04:34.284Z,19.30
2024-03-03T08:07:05.411Z,19.31
2024-03-03T08:09:36.171Z,19.33
2024-03-03T08:12:08.652Z,19.36
2024-03-03T08:14:39.569Z,19.38
2024-03-03T08:17:10.554Z,19.41
2024-03-03T08:19:41.321Z,19.43
2024-03-03T08:22:12.015Z,19.45
2024-03-03T08:24:43.893Z,19.48
2024-03-03T08:27:14.730Z,19.49
2024-03-03T08:29:45.738Z,19.51
2024-03-03T08:32:16.658Z,19.53
2024-03-03T08:34:47.468Z,19.55
2024-03-03T08:37:18.417Z,19.57
2024-03-03T08:39:49.552Z,19.60
2024-03-03T08:42:20.622Z,19.63
2024-03-03T08:44:51.879Z,19.67
2024-03-03T08:47:23.202Z,19.69
2024-03-03T08:49:54.175Z,19.75
2024-03-03T08:52:25.344Z,19.78
2024-03-03T08:54:56.488Z,19.82
2024-03-03T08:57:27.492Z,19.88
2024-03-03T08:59:59.251Z,19.93
2024-03-03T09:02:30.666Z,19.99
2024-03-03T09:05:03.044Z,20.03
2024-03-03T09:07:33.881Z,20.09
2024-03-03T09:10:05.777Z,20.13
2024-03-03T09:12:37.089Z,20.18
2024-03-03T09:15:09.441Z,20.25
2024-03-03T09:17:40.655Z,20.31
2024-03-03T09:20:13.251Z,20.36
2024-03-03T09:22:44.200Z,20.41
2024-03-03T09:25:15.170Z,20.47
2024-03-03T09:27:46.138Z,20.53
2024-03-03T09:30:18.284Z,20.58
2024-03-03T09:32:52.676Z,20.64
2024-03-03T09:35:23.658Z,20.68
2024-03-03T09:37:54.802Z,20.73
2024-03-03T09:40:27.356Z,20.77
2024-03-03T09:43:02.152Z,20.81
2024-03-03T09:45:34.427Z,20.85
2024-03-03T09:48:09.893Z,20.89
2024-03-03T09:50:42.511Z,20.94
2024-03-03T09:53:14.334Z,20.99
2024-03-03T09:55:47.279Z,21.02
2024-03-03T09:58:19.076Z,21.04
2024-03-03T10:00:52.049Z,21.07
2024-03-03T10:03:26.861Z,21.11
2024-03-03T10:06:00.066Z,21.14
2024-03-03T10:08:32.061Z,21.18
2024-03-03T10:11:07.620Z,21.21
2024-03-03T10:13:38.671Z,21.23
2024-03-03T10:16:11.584Z,21.27
2024-03-03T10:18:42.821Z,21.31
2024-03-03T10:21:15.318Z,21.34
2024-03-03T10:23:46.204Z,21.37
2024-03-03T10:26:17.510Z,21.39
2024-03-03T10:29:06.427Z,21.42
2024-03-03T10:31:37.301Z,21.44
2024-03-03T10:34:10.645Z,21.47
2024-03-03T10:36:42.602Z,21.48
2024-03-03T10:39:14.026Z,21.50
2024-03-03T10:41:45.225Z,21.51
2024-03-03T10:44:16.310Z,21.53
2024-03-03T10:46:49.865Z,21.54
2024-03-03T10:49:21.618Z,21.56
2024-03-03T10:51:53.181Z,21.57
2024-03-03T10:54:24.733Z,21.60
2024-03-03T10:56:56.456Z,21.62
2024-03-03T10:59:32.267Z,21.64
2024-03-03T11:02:05.370Z,21.64
2024-03-03T11:04:39.899Z,21.66
2024-03-03T11:07:13.742Z,21.68
2024-03-03T11:09:46.992Z,21.70
2024-03-03T11:12:21.943Z,21.71
2024-03-03T11:14:57.456Z,21.72
2024-03-03T11:17:35.157Z,21.73
2024-03-03T11:20:11.214Z,21.74
2024-03-03T11:22:48.592Z,21.75
2024-03-03T11:25:24.198Z,21.75
2024-03-03T11:28:01.076Z,21.75
2024-03-03T11:30:34.611Z,21.76
2024-03-03T11:33:07.062Z,21.77
2024-03-03T11:35:40.225Z,21.78
2024-03-03T11:38:12.798Z,21.78
2024-03-03T11:40:47.253Z,21.78
2024-03-03T11:43:18.875Z,21.77
2024-03-03T11:45:52.030Z,21.78
2024-03-03T11:48:23.777Z,21.77
2024-03-03T11:51:15.397Z,21.78
2024-03-03T11:53:59.470Z,21.77
2024-03-03T11:56:33.077Z,21.78
2024-03-03T11:59:04.905Z,21.80
2024-03-03T12:01:36.731Z,21.80
2024-03-03T12:04:08.456Z,21.79
2024-03-03T12:06:41.202Z,21.79
2024-03-03T12:09:15.213Z,21.80
2024-03-03T12:11:49.597Z,21.81
2024-03-03T12:14:21.658Z,21.82
2024-03-03T12:16:52.870Z,21.83
2024-03-03T12:19:23.813Z,21.83
2024-03-03T12:21:55.397Z,21.83
2024-03-03T12:24:28.180Z,21.83
2024-03-03T12:26:59.209Z,21.83
2024-03-03T12:29:30.301Z,21.84
2024-03-03T12:32:04.774Z,21.84
2024-03-03T12:34:37.826Z,21.85
2024-03-03T12:37:09.819Z,21.85
2024-03-03T12:39:40.772Z,21.85
2024-03-03T12:42:12.611Z,21.85
2024-03-03T12:44:44.725Z,21.85
2024-03-03T12:47:18.616Z,21.85
2024-03-03T12:49:49.837Z,21.86
2024-03-03T12:52:21.438Z,21.86
2024-03-03T12:54:52.906Z,21.86
2024-03-03T12:57:27.806Z,21.86
2024-03-03T12:59:59.879Z,21.87
2024-03-03T13:02:32.136Z,21.88
2024-03-03T13:05:03.807Z,21.89
2024-03-03T13:07:35.839Z,21.90
2024-03-03T13:10:19.416Z,21.90
2024-03-03T13:12:53.490Z,21.90
2024-03-03T13:15:26.865Z,21.91
2024-03-03T13:18:10.585Z,21.91
2024-03-03T13:20:41.775Z,21.92
2024-03-03T13:23:14.754Z,21.93
2024-03-03T13:25:46.246Z,21.93
2024-03-03T13:28:18.587Z,21.94
2024-03-03T13:31:01.019Z,21.94
2024-03-03T13:33:35.068Z,21.95
2024-03-03T13:36:09.116Z,21.94
2024-03-03T13:38:41.687Z,21.94
2024-03-03T13:41:12.964Z,21.96
2024-03-03T13:43:43.987Z,21.96
2024-03-03T13:46:15.008Z,21.96
2024-03-03T13:48:46.075Z,21.99
2024-03-03T13:51:18.031Z,22.00
2024-03-03T13:53:51.501Z,22.01
2024-03-03T13:56:32.768Z,22.02
2024-03-03T13:59:04.741Z,22.02
2024-03-03T14:01:46.069Z,22.03
2024-03-03T14:04:19.580Z,22.04
2024-03-03T14:06:51.276Z,22.05
2024-03-03T14:09:23.576Z,22.05
2024-03-03T14:11:56.260Z,22.05
2024-03-03T14:14:27.582Z,22.06
2024-03-03T14:16:59.282Z,22.06
2024-03-03T14:19:30.642Z,22.06
2024-03-03T14:22:01.545Z,22.07
2024-03-03T14:24:32.405Z,22.07
2024-03-03T14:27:05.028Z,22.08
2024-03-03T14:29:35.732Z,22.09
2024-03-03T14:32:07.390Z,22.10
2024-03-03T14:34:38.411Z,22.11
2024-03-03T14:37:09.404Z,22.11
2024-03-03T14:39:40.480Z,22.12
2024-03-03T14:42:12.054Z,22.14
2024-03-03T14:44:43.688Z,22.14
2024-03-03T14:47:16.078Z,22.14
2024-03-03T14:49:47.841Z,22.14
2024-03-03T14:52:18.970Z,22.16
2024-03-03T14:54:50.232Z,22.17
2024-03-03T14:57:21.323Z,22.17
2024-03-03T14:59:52.229Z,22.17
2024-03-03T15:02:23.517Z,22.17
2024-03-03T15:04:55.016Z,22.16
2024-03-03T15:07:27.174Z,22.16
2024-03-03T15:09:59.844Z,22.15
2024-03-03T15:12:31.229Z,22.15
2024-03-03T15:15:05.092Z,22.15
2024-03-03T15:17:36.733Z,22.15
2024-03-03T15:20:13.742Z,22.15
2024-03-03T15:22:47.377Z,22.15
2024-03-03T15:25:21.021Z,22.16
2024-03-03T15:27:53.071Z,22.16
2024-03-03T15:30:24.922Z,22.15
2024-03-03T15:32:56.829Z,22.15
2024-03-03T15:35:28.681Z,22.15
2024-03-03T15:38:01.538Z,22.14
2024-03-03T15:40:32.962Z,22.12
2024-03-03T15:43:05.130Z,22.13
2024-03-03T15:45:39.146Z,22.13
2024-03-03T15:48:14.990Z,22.12
2024-03-03T15:50:49.207Z,22.10
2024-03-03T15:53:21.032Z,22.11
2024-03-03T15:55:55.239Z,22.10
2024-03-03T15:58:27.606Z,22.10
2024-03-03T16:00:59.032Z,22.10
2024-03-03T16:03:30.644Z,22.10
2024-03-03T16:06:01.809Z,22.10
2024-03-03T16:08:33.020Z,22.10
2024-03-03T16:11:04.087Z,22.09
2024-03-03T16:13:35.476Z,22.08
2024-03-03T16:16:06.954Z,22.07
2024-03-03T16:18:38.219Z,22.08
2024-03-03T16:21:09.859Z,22.08
2024-03-03T16:23:41.655Z,22.08
2024-03-03T16:26:12.790Z,22.07
2024-03-03T16:28:43.873Z,22.07
2024-03-03T16:31:16.215Z,22.06
2024-03-03T16:33:47.701Z,22.07
2024-03-03T16:36:20.440Z,22.06
2024-03-03T16:38:54.160Z,22.06
2024-03-03T16:41:27.130Z,22.05
2024-03-03T16:43:58.640Z,22.04
2024-03-03T16:46:29.805Z,22.03
2024-03-03T16:49:02.463Z,22.03
2024-03-03T16:51:33.373Z,22.02
2024-03-03T16:54:04.936Z,22.02
2024-03-03T16:56:37.104Z,22.02
2024-03-03T16:59:09.195Z,22.01
2024-03-03T17:01:40.346Z,22.01
2024-03-03T17:04:11.896Z,22.01
2024-03-03T17:06:43.015Z,22.04
2024-03-03T17:09:14.118Z,22.06
2024-03-03T17:11:45.045Z,22.10
2024-03-03T17:14:16.701Z,22.12
2024-03-03T17:16:50.776Z,22.15
2024-03-03T17:19:22.803Z,22.18
2024-03-03T17:21:54.031Z,22.21
2024-03-03T17:24:25.435Z,22.24
2024-03-03T17:26:56.694Z,22.28
2024-03-03T17:29:27.873Z,22.31
2024-03-03T17:31:59.716Z,22.34
2024-03-03T17:34:30.916Z,22.38
2024-03-03T17:37:01.981Z,22.42
2024-03-03T17:39:33.326Z,22.45
2024-03-03T17:42:04.827Z,22.48
2024-03-03T17:44:36.348Z,22.50
2024-03-03T17:47:08.131Z,22.52
2024-03-03T17:49:40.052Z,22.54
2024-03-03T17:52:11.380Z,22.54
2024-03-03T17:54:42.349Z,22.56
2024-03-03T17:57:13.943Z,22.60
2024-03-03T17:59:47.417Z,22.64
2024-03-03T18:02:19.126Z,22.67
2024-03-03T18:04:50.798Z,22.69
2024-03-03T18:07:22.671Z,22.71
2024-03-03T18:09:54.317Z,22.74
2024-03-03T18:12:26.780Z,22.78
2024-03-03T18:14:58.266Z,22.80
2024-03-03T18:17:29.970Z,22.81
2024-03-03T18:20:01.373Z,22.82
2024-03-03T18:22:32.460Z,22.84
2024-03-03T18:25:04.243Z,22.86
2024-03-03T18:27:38.664Z,22.87
2024-03-03T18:30:13.286Z,22.88
2024-03-03T18:32:44.965Z,22.89
2024-03-03T18:35:18.849Z,22.91
2024-03-03T18:37:50.371Z,22.93
2024-03-03T18:40:22.607Z,22.93
2024-03-03T18:42:54.069Z,22.94
2024-03-03T18:45:25.410Z,22.95
2024-03-03T18:47:57.364Z,22.96
2024-03-03T18:50:29.470Z,22.97
2024-03-03T18:53:01.162Z,22.98
2024-03-03T18:55:32.968Z,22.98
2024-03-03T18:58:04.539Z,22.98
2024-03-03T19:00:41.101Z,22.99
2024-03-03T19:03:14.659Z,22.99
2024-03-03T19:05:45.678Z,22.99
2024-03-03T19:08:17.165Z,22.99
2024-03-03T19:10:49.604Z,22.99
2024-03-03T19:13:20.983Z,23.00
2024-03-03T19:15:52.167Z,23.00
2024-03-03T19:18:24.023Z,22.99
2024-03-03T19:20:56.028Z,22.98
2024-03-03T19:23:29.176Z,22.97
2024-03-03T19:26:00.343Z,22.95
2024-03-03T19:28:32.035Z,22.94
2024-03-03T19:31:04.904Z,22.93
2024-03-03T19:33:35.869Z,22.92
2024-03-03T19:36:07.824Z,22.90
2024-03-03T19:38:39.032Z,22.87
2024-03-03T19:41:11.388Z,22.86
2024-03-03T19:43:42.735Z,22.85
2024-03-03T19:46:13.838Z,22.85
2024-03-03T19:48:45.547Z,22.85
2024-03-03T19:51:22.229Z,22.88
2024-03-03T19:53:53.613Z,22.90
2024-03-03T19:56:25.512Z,22.93
2024-03-03T19:58:57.014Z,22.95
2024-03-03T20:01:28.394Z,22.98
2024-03-03T20:03:59.747Z,23.01
2024-03-03T20:06:30.711Z,23.05
2024-03-03T20:09:02.252Z,23.08
2024-03-03T20:11:33.441Z,23.11
2024-03-03T20:14:04.426Z,23.15
2024-03-03T20:16:35.587Z,23.18
2024-03-03T20:19:06.805Z,23.22
2024-03-03T20:21:37.861Z,23.25
2024-03-03T20:24:14.214Z,23.28
2024-03-03T20:26:45.605Z,23.30
2024-03-03T20:29:16.804Z,23.33
2024-03-03T20:31:47.892Z,23.37
2024-03-03T20:34:19.241Z,23.40
2024-03-03T20:36:50.267Z,23.42
2024-03-03T20:39:21.431Z,23.41
2024-03-03T20:41:52.930Z,23.40
2024-03-03T20:44:23.995Z,23.43
2024-03-03T20:46:54.854Z,23.46
2024-03-03T20:49:25.813Z,23.49
2024-03-03T20:51:56.663Z,23.53
2024-03-03T20:54:27.573Z,23.57
2024-03-03T20:56:58.755Z,23.60
2024-03-03T20:59:30.142Z,23.62
2024-03-03T21:02:01.080Z,23.65
2024-03-03T21:04:33.973Z,23.68
2024-03-03T21:07:05.567Z,23.70
2024-03-03T21:09:36.605Z,23.72
2024-03-03T21:12:09.448Z,23.73
2024-03-03T21:14:40.449Z,23.75
2024-03-03T21:17:11.286Z,23.76
2024-03-03T21:19:42.382Z,23.77
2024-03-03T21:22:13.306Z,23.77
2024-03-03T21:24:44.226Z,23.76
2024-03-03T21:27:15.241Z,23.76
2024-03-03T21:29:46.211Z,23.74
2024-03-03T21:32:19.049Z,23.74
2024-03-03T21:34:50.663Z,23.71
2024-03-03T21:37:21.488Z,23.72
2024-03-03T21:39:52.579Z,23.71
2024-03-03T21:42:23.595Z,23.70
2024-03-03T21:44:54.393Z,23.68
2024-03-03T21:47:26.303Z,23.67
2024-03-03T21:49:57.209Z,23.66
2024-03-03T21:52:28.571Z,23.64
2024-03-03T21:54:59.605Z,23.62
2024-03-03T21:57:30.444Z,23.60
2024-03-03T22:00:01.308Z,23.58
2024-03-03T22:02:32.279Z,23.56
2024-03-03T22:05:03.807Z,23.53
2024-03-03T22:07:34.675Z,23.51
2024-03-03T22:10:06.588Z,23.47
2024-03-03T22:12:37.352Z,23.45
2024-03-03T22:15:09.568Z,23.43
2024-03-03T22:17:40.406Z,23.41
2024-03-03T22:20:13.350Z,23.38
2024-03-03T22:22:44.397Z,23.35
2024-03-03T22:25:15.333Z,23.33
2024-03-03T22:27:46.112Z,23.31
2024-03-03T22:30:17.553Z,23.28
2024-03-03T22:32:49.048Z,23.26
2024-03-03T22:35:22.272Z,23.24
2024-03-03T22:37:53.437Z,23.22
2024-03-03T22:40:29.253Z,23.20
2024-03-03T22:43:00.347Z,23.18
2024-03-03T22:45:31.171Z,23.16
2024-03-03T22:48:01.966Z,23.14
2024-03-03T22:50:32.743Z,23.12
2024-03-03T22:53:03.570Z,23.10
2024-03-03T22:55:34.892Z,23.07
2024-03-03T22:58:06.134Z,23.06
2024-03-03T23:00:39.601Z,23.04
2024-03-03T23:03:12.079Z,23.02
2024-03-03T23:05:42.798Z,23.01
2024-03-03T23:08:13.657Z,22.98
2024-03-03T23:10:44.473Z,22.96
2024-03-03T23:13:15.468Z,22.94
2024-03-03T23:15:46.158Z,22.92
2024-03-03T23:18:17.294Z,22.90
2024-03-03T23:20:48.702Z,22.87
2024-03-03T23:23:19.376Z,22.86
2024-03-03T23:25:50.401Z,22.83
2024-03-03T23:28:21.719Z,22.81
2024-03-03T23:30:52.560Z,22.79
2024-03-03T23:33:23.286Z,22.78
2024-03-03T23:35:54.018Z,22.77
2024-03-03T23:38:24.732Z,22.74
2024-03-03T23:40:55.589Z,22.72
2024-03-03T23:43:26.341Z,22.70
2024-03-03T23:45:57.607Z,22.68
2024-03-03T23:48:28.307Z,22.66
2024-03-03T23:50:59.897Z,22.64
2024-03-03T23:53:30.797Z,22.63
2024-03-03T23:56:04.791Z,22.62
2024-03-03T23:58:35.806Z,22.60
